createdAt,value
2022-10-07T00:02:30.643Z,27.10
2022-10-07T00:05:05.414Z,21.90
2022-10-07T00:07:37.666Z,20.60
2022-10-07T00:10:11.077Z,23.50
2022-10-07T00:12:45.156Z,17.90
2022-10-07T00:15:17.362Z,17.90
2022-10-07T00:17:49.510Z,17.50
2022-10-07T00:20:21.681Z,19.20
2022-10-07T00:22:54.519Z,21.60
2022-10-07T00:25:27.206Z,29.50
2022-10-07T00:27:59.251Z,24.30
2022-10-07T00:30:31.384Z,23.90
2022-10-07T00:33:03.568Z,19.40
2022-10-07T00:35:37.973Z,22.80
2022-10-07T00:38:10.983Z,17.60
2022-10-07T00:40:45.061Z,20.90
2022-10-07T00:43:26.477Z,18.20
2022-10-07T00:46:07.258Z,25.40
2022-10-07T00:48:41.896Z,24.40
2022-10-07T00:51:16.455Z,24.30
2022-10-07T00:53:52.651Z,27.40
2022-10-07T00:56:27.299Z,20.90
2022-10-07T00:59:00.577Z,28.70
2022-10-07T01:01:35.529Z,29.50
2022-10-07T01:04:08.189Z,24.30
2022-10-07T01:06:41.581Z,32.20
2022-10-07T01:09:14.864Z,27.70
2022-10-07T01:11:58.171Z,23.90
2022-10-07T01:14:50.307Z,25.60
2022-10-07T01:17:31.795Z,25.30
2022-10-07T01:20:31.417Z,20.70
2022-10-07T01:23:32.756Z,19.70
2022-10-07T01:26:46.567Z,20.20
2022-10-07T01:29:22.893Z,20.70
2022-10-07T01:32:00.772Z,18.60
2022-10-07T01:34:34.423Z,18.50
2022-10-07T01:37:12.240Z,15.10
2022-10-07T01:39:50.272Z,12.00
2022-10-07T01:42:26.315Z,18.40
2022-10-07T01:45:01.260Z,10.40
2022-10-07T01:47:35.919Z,11.70
2022-10-07T01:50:15.132Z,9.90
2022-10-07T01:53:01.773Z,10.10
2022-10-07T01:55:45.728Z,12.00
2022-10-07T01:58:41.233Z,9.10
2022-10-07T02:01:22.912Z,11.30
2022-10-07T02:04:13.481Z,12.20
2022-10-07T02:09:31.335Z,11.10
2022-10-07T02:12:13.021Z,15.00
2022-10-07T02:14:52.307Z,9.90
2022-10-07T02:17:27.052Z,10.00
2022-10-07T02:20:01.283Z,13.30
2022-10-07T02:22:34.464Z,14.80
2022-10-07T02:25:10.007Z,12.80
2022-10-07T02:27:44.366Z,15.00
2022-10-07T02:30:20.083Z,11.00
2022-10-07T02:32:56.712Z,17.40
2022-10-07T02:35:33.998Z,15.60
2022-10-07T02:38:10.530Z,16.30
2022-10-07T02:40:49.454Z,18.90
2022-10-07T02:43:32.936Z,19.70
2022-10-07T02:46:10.259Z,17.40
2022-10-07T02:48:46.471Z,19.70
2022-10-07T02:51:24.365Z,27.00
2022-10-07T02:53:58.627Z,31.40
2022-10-07T02:56:32.759Z,31.90
2022-10-07T02:59:07.993Z,35.20
2022-10-07T03:01:46.710Z,29.00
2022-10-07T03:04:22.830Z,27.70
2022-10-07T03:06:55.535Z,26.50
2022-10-07T03:09:30.036Z,23.30
2022-10-07T03:12:05.662Z,23.80
2022-10-07T03:14:37.737Z,26.60
2022-10-07T03:17:12.644Z,32.50
2022-10-07T03:19:44.867Z,31.20
2022-10-07T03:22:18.027Z,28.30
2022-10-07T03:24:50.497Z,25.60
2022-10-07T03:27:22.750Z,24.60
2022-10-07T03:29:55.811Z,23.90
2022-10-07T03:32:28.306Z,32.10
2022-10-07T03:35:01.918Z,28.00
2022-10-07T03:37:35.198Z,26.40
2022-10-07T03:40:09.040Z,29.70
2022-10-07T03:42:43.550Z,29.20
2022-10-07T03:45:15.961Z,30.00
2022-10-07T03:47:48.352Z,24.80
2022-10-07T03:50:21.071Z,34.80
2022-10-07T03:52:54.034Z,34.20
2022-10-07T03:55:26.342Z,36.00
2022-10-07T03:57:59.854Z,37.40
2022-10-07T04:00:33.129Z,38.00
2022-10-07T04:03:05.769Z,39.00
2022-10-07T04:05:39.223Z,42.70
2022-10-07T04:08:15.907Z,40.40
2022-10-07T04:10:48.007Z,41.70
2022-10-07T04:13:20.090Z,47.50
2022-10-07T04:15:52.572Z,43.30
2022-10-07T04:18:26.161Z,42.30
2022-10-07T04:21:02.085Z,50.80
2022-10-07T04:23:35.485Z,50.00
2022-10-07T04:26:12.615Z,48.90
2022-10-07T04:28:49.264Z,46.40
2022-10-07T04:31:29.475Z,46.50
2022-10-07T04:34:04.433Z,57.90
2022-10-07T04:36:40.223Z,56.40
2022-10-07T04:39:18.509Z,58.10
2022-10-07T04:41:58.351Z,56.50
2022-10-07T04:44:34.511Z,69.80
2022-10-07T04:47:10.365Z,55.20
2022-10-07T04:49:43.307Z,57.20
2022-10-07T04:52:16.191Z,48.70
2022-10-07T04:54:49.131Z,53.00
2022-10-07T04:57:21.310Z,51.10
2022-10-07T04:59:53.993Z,52.10
2022-10-07T05:02:26.661Z,50.00
2022-10-07T05:05:02.371Z,45.50
2022-10-07T05:07:34.955Z,59.60
2022-10-07T05:10:08.750Z,66.40
2022-10-07T05:12:42.002Z,75.30
2022-10-07T05:15:14.659Z,91.80
2022-10-07T05:17:47.507Z,100.20
2022-10-07T05:20:20.427Z,103.90
2022-10-07T05:22:56.022Z,123.10
2022-10-07T05:25:28.213Z,128.80
2022-10-07T05:28:05.220Z,121.40
2022-10-07T05:30:37.568Z,117.90
2022-10-07T05:33:10.923Z,121.00
2022-10-07T05:35:51.388Z,107.60
2022-10-07T05:38:24.054Z,96.00
2022-10-07T05:41:00.919Z,99.30
2022-10-07T05:43:36.498Z,92.70
2022-10-07T05:46:12.015Z,98.40
2022-10-07T05:48:48.523Z,99.50
2022-10-07T05:51:21.900Z,95.30
2022-10-07T05:53:56.711Z,93.60
2022-10-07T05:56:32.493Z,98.60
2022-10-07T05:59:05.631Z,87.60
2022-10-07T06:01:39.835Z,86.60
2022-10-07T06:04:15.423Z,84.90
2022-10-07T06:06:50.120Z,82.80
2022-10-07T06:09:40.773Z,81.70
2022-10-07T06:16:09.055Z,81.00
2022-10-07T06:18:41.519Z,77.80
2022-10-07T06:22:04.979Z,69.80
2022-10-07T06:24:38.029Z,62.70
2022-10-07T06:28:18.076Z,68.00
2022-10-07T06:30:51.211Z,60.00
2022-10-07T06:37:39.393Z,38.80
2022-10-07T06:40:44.187Z,37.70
2022-10-07T06:43:16.949Z,22.80
2022-10-07T06:47:01.717Z,20.40
2022-10-07T06:54:26.109Z,13.20
2022-10-07T06:56:58.389Z,13.60
2022-10-07T06:59:31.119Z,15.50
2022-10-07T07:03:02.272Z,19.90
2022-10-07T07:05:49.752Z,16.20
2022-10-07T07:08:27.879Z,18.90
2022-10-07T07:15:14.409Z,21.00
2022-10-07T07:17:47.080Z,15.20
2022-10-07T07:20:19.825Z,14.40
2022-10-07T07:22:52.524Z,13.20
2022-10-07T07:25:24.673Z,12.40
2022-10-07T07:28:00.919Z,13.50
2022-10-07T07:30:34.581Z,15.00
2022-10-07T07:33:07.180Z,8.30
2022-10-07T07:35:43.602Z,7.90
2022-10-07T07:38:24.735Z,9.60
2022-10-07T07:40:58.456Z,8.60
2022-10-07T07:43:30.833Z,11.70
2022-10-07T07:46:03.184Z,11.90
2022-10-07T07:48:38.551Z,8.90
2022-10-07T07:51:19.061Z,10.30
2022-10-07T07:53:52.578Z,8.80
2022-10-07T07:56:24.611Z,9.60
2022-10-07T07:58:57.237Z,11.00
2022-10-07T08:01:32.034Z,8.70
2022-10-07T08:04:05.826Z,9.70
2022-10-07T08:06:37.969Z,6.70
2022-10-07T08:09:10.769Z,7.20
2022-10-07T08:11:45.481Z,7.60
2022-10-07T08:14:19.863Z,10.20
2022-10-07T08:16:55.598Z,8.10
2022-10-07T08:19:29.656Z,8.70
2022-10-07T08:22:02.280Z,8.70
2022-10-07T08:24:36.026Z,7.90
2022-10-07T08:27:08.074Z,8.20
2022-10-07T08:29:42.570Z,6.00
2022-10-07T08:32:15.253Z,7.10
2022-10-07T08:34:47.418Z,7.00
2022-10-07T08:37:20.559Z,10.40
2022-10-07T08:39:52.654Z,6.50
2022-10-07T08:42:31.241Z,7.20
2022-10-07T08:45:04.190Z,7.30
2022-10-07T08:47:42.044Z,6.70
2022-10-07T08:50:19.746Z,6.40
2022-10-07T08:52:56.949Z,6.00
2022-10-07T08:55:41.118Z,7.30
2022-10-07T08:58:31.271Z,8.30
2022-10-07T09:01:12.839Z,6.10
2022-10-07T09:03:52.143Z,9.40
2022-10-07T09:06:33.593Z,7.20
2022-10-07T09:09:14.018Z,7.80
2022-10-07T09:11:49.478Z,7.80
2022-10-07T09:14:28.134Z,6.00
2022-10-07T09:17:08.010Z,7.90
2022-10-07T09:19:48.099Z,9.00
2022-10-07T09:22:32.236Z,5.40
2022-10-07T09:25:21.045Z,6.80
2022-10-07T09:27:56.413Z,7.00
2022-10-07T09:30:29.670Z,6.20
2022-10-07T09:33:04.432Z,6.20
2022-10-07T09:35:38.239Z,5.40
2022-10-07T09:38:10.998Z,4.80
2022-10-07T09:40:59.002Z,6.90
2022-10-07T09:44:19.180Z,5.90
2022-10-07T09:52:24.267Z,5.70
2022-10-07T10:06:46.033Z,9.90
2022-10-07T10:09:42.217Z,7.90
2022-10-07T10:12:16.920Z,7.00
2022-10-07T10:20:38.571Z,4.60
2022-10-07T10:31:05.012Z,5.90
2022-10-07T10:34:15.922Z,6.50
2022-10-07T10:54:59.284Z,3.90
2022-10-07T11:01:46.898Z,13.60
2022-10-07T11:04:26.814Z,7.30
2022-10-07T11:15:48.834Z,4.10
2022-10-07T11:19:25.221Z,5.60
2022-10-07T11:22:00.408Z,3.90
2022-10-07T11:25:48.742Z,3.70
2022-10-07T11:36:19.919Z,5.20
2022-10-07T11:39:20.053Z,5.90
2022-10-07T11:51:12.098Z,4.40
2022-10-07T11:53:53.399Z,7.20
2022-10-07T11:56:28.374Z,9.60
2022-10-07T11:59:02.507Z,7.70
2022-10-07T12:02:40.548Z,7.70
2022-10-07T12:05:57.633Z,7.70
2022-10-07T12:08:38.503Z,6.90
2022-10-07T12:11:45.313Z,5.30
2022-10-07T12:14:42.138Z,10.20
2022-10-07T12:17:30.469Z,7.10
2022-10-07T12:30:03.236Z,9.20
2022-10-07T12:38:02.895Z,5.80
2022-10-07T12:41:19.021Z,7.70
2022-10-07T12:44:01.335Z,5.60
2022-10-07T12:46:40.090Z,6.30
2022-10-07T12:49:26.253Z,5.10
2022-10-07T12:52:06.362Z,6.90
2022-10-07T12:54:45.478Z,4.80
2022-10-07T12:58:29.167Z,4.70
2022-10-07T13:01:28.528Z,6.30
2022-10-07T13:04:29.606Z,5.00
2022-10-07T13:07:40.022Z,4.40
2022-10-07T13:10:38.929Z,4.60
2022-10-07T13:13:16.673Z,6.00
2022-10-07T13:15:54.710Z,6.10
2022-10-07T13:18:40.641Z,6.30
2022-10-07T13:21:23.344Z,5.60
2022-10-07T13:23:57.293Z,6.60
2022-10-07T13:26:30.200Z,6.80
2022-10-07T13:29:09.340Z,5.00
2022-10-07T13:31:42.035Z,10.40
2022-10-07T13:34:21.352Z,5.90
2022-10-07T13:36:53.533Z,6.20
2022-10-07T13:39:30.687Z,5.30
2022-10-07T13:42:04.101Z,4.10
2022-10-07T13:44:36.357Z,4.60
2022-10-07T13:50:17.740Z,4.80
2022-10-07T13:52:53.324Z,5.50
2022-10-07T13:55:37.318Z,4.10
2022-10-07T13:58:11.091Z,4.50
2022-10-07T14:00:49.045Z,4.20
2022-10-07T14:03:21.318Z,6.70
2022-10-07T14:05:57.384Z,4.80
2022-10-07T14:08:34.239Z,4.10
2022-10-07T14:11:17.420Z,6.00
2022-10-07T14:13:50.476Z,9.40
2022-10-07T14:16:26.559Z,5.70
2022-10-07T14:18:59.141Z,6.10
2022-10-07T14:26:01.986Z,6.60
2022-10-07T14:31:59.250Z,8.20
2022-10-07T14:40:03.957Z,5.30
2022-10-07T14:42:36.385Z,4.70
2022-10-07T14:45:39.360Z,6.30
2022-10-07T14:48:14.847Z,5.80
2022-10-07T14:50:48.767Z,7.30
2022-10-07T14:53:20.806Z,7.90
2022-10-07T15:00:45.932Z,9.40
2022-10-07T15:03:18.037Z,9.20
2022-10-07T15:06:32.717Z,9.00
2022-10-07T15:09:13.655Z,5.80
2022-10-07T15:11:45.713Z,5.50
2022-10-07T15:15:25.230Z,6.90
2022-10-07T15:18:57.317Z,6.90
2022-10-07T15:21:29.841Z,13.90
2022-10-07T15:28:27.238Z,8.10
2022-10-07T15:45:51.485Z,9.20
2022-10-07T15:52:54.806Z,6.80
2022-10-07T15:57:57.648Z,5.60
2022-10-07T16:09:40.441Z,9.30
2022-10-07T16:17:09.436Z,6.90
2022-10-07T16:24:55.631Z,6.80
2022-10-07T16:33:07.944Z,6.00
2022-10-07T16:36:46.024Z,7.40
2022-10-07T16:39:21.363Z,10.30
2022-10-07T16:42:42.783Z,9.40
2022-10-07T16:45:23.184Z,6.80
2022-10-07T16:52:56.241Z,7.00
2022-10-07T16:56:20.369Z,7.60
2022-10-07T16:59:00.454Z,9.90
2022-10-07T17:01:33.899Z,10.90
2022-10-07T17:04:59.710Z,9.90
2022-10-07T17:12:06.921Z,23.30
2022-10-07T17:14:39.033Z,23.00
2022-10-07T17:18:19.440Z,25.80
2022-10-07T17:20:59.396Z,16.20
2022-10-07T17:27:27.918Z,18.60
2022-10-07T17:34:59.298Z,18.40
2022-10-07T17:38:05.879Z,28.60
2022-10-07T17:40:44.235Z,19.50
2022-10-07T17:43:16.252Z,21.20
2022-10-07T17:45:54.943Z,22.00
2022-10-07T17:48:27.107Z,22.10
2022-10-07T17:55:54.655Z,27.60
2022-10-07T18:02:55.785Z,37.30
2022-10-07T18:05:28.792Z,47.80
2022-10-07T18:08:11.225Z,49.80
2022-10-07T18:10:43.200Z,50.40
2022-10-07T18:16:57.542Z,58.00
2022-10-07T18:19:31.769Z,75.30
2022-10-07T18:22:10.134Z,57.80
2022-10-07T18:24:43.667Z,65.60
2022-10-07T18:27:16.797Z,71.50
2022-10-07T18:30:31.181Z,76.60
2022-10-07T18:33:03.299Z,82.00
2022-10-07T18:36:29.576Z,72.80
2022-10-07T18:52:40.491Z,60.40
2022-10-07T18:55:21.193Z,59.40
2022-10-07T18:58:17.951Z,80.40
2022-10-07T19:00:51.371Z,68.70
2022-10-07T19:03:23.531Z,86.00
2022-10-07T19:05:57.266Z,84.60
2022-10-07T19:08:32.204Z,75.40
2022-10-07T19:11:14.563Z,77.10
2022-10-07T19:20:38.206Z,69.80
2022-10-07T19:23:17.385Z,65.60
2022-10-07T19:25:50.034Z,49.00
2022-10-07T19:28:31.308Z,46.50
2022-10-07T19:31:52.895Z,43.20
2022-10-07T19:34:28.466Z,40.60
2022-10-07T19:44:40.311Z,35.80
2022-10-07T19:47:12.520Z,35.40
2022-10-07T19:58:51.932Z,62.30
2022-10-07T20:01:26.298Z,83.20
2022-10-07T20:04:47.363Z,95.70
2022-10-07T20:07:26.914Z,110.50
2022-10-07T20:09:59.434Z,107.20
2022-10-07T20:13:03.199Z,94.40
2022-10-07T20:15:35.296Z,87.70
2022-10-07T20:22:57.968Z,72.90
2022-10-07T20:25:38.491Z,67.30
2022-10-07T20:28:13.865Z,64.60
2022-10-07T20:30:46.137Z,60.60
2022-10-07T20:37:49.589Z,44.10
2022-10-07T20:44:33.690Z,38.20
2022-10-07T20:47:06.413Z,35.50
2022-10-07T20:49:45.362Z,32.40
2022-10-07T20:52:45.420Z,34.20
2022-10-07T20:55:17.954Z,27.10
2022-10-07T21:16:20.526Z,26.30
2022-10-07T21:18:55.729Z,24.60
2022-10-07T21:21:28.122Z,28.70
2022-10-07T21:24:08.437Z,37.60
2022-10-07T21:26:42.291Z,31.90
2022-10-07T21:29:15.231Z,28.20
2022-10-07T21:41:34.726Z,27.00
2022-10-07T21:48:25.653Z,31.70
2022-10-07T21:50:59.062Z,25.00
2022-10-07T21:54:45.594Z,31.20
2022-10-07T21:57:24.473Z,30.30
2022-10-07T21:59:57.072Z,31.60
2022-10-07T22:02:35.802Z,30.00
2022-10-07T22:09:05.197Z,28.70
2022-10-07T22:11:37.581Z,25.50
2022-10-07T22:14:18.853Z,28.70
2022-10-07T22:17:40.870Z,33.50
2022-10-07T22:21:00.228Z,25.30
2022-10-07T22:28:54.181Z,30.90
2022-10-07T22:39:58.535Z,31.00
2022-10-07T22:42:30.779Z,29.40
2022-10-07T22:49:28.618Z,29.00
2022-10-07T23:03:07.749Z,37.00
2022-10-07T23:10:17.915Z,40.40
2022-10-07T23:13:40.762Z,33.40
2022-10-07T23:19:54.598Z,35.30
2022-10-07T23:23:19.368Z,35.30
2022-10-07T23:27:29.718Z,32.10
2022-10-07T23:30:02.811Z,33.20
2022-10-07T23:36:43.892Z,35.90
2022-10-07T23:52:57.336Z,30.00
2022-10-07T23:55:36.667Z,33.60
2022-10-07T23:58:09.323Z,32.60
